sensor_id;sensor_type;location;lat;lon;timestamp;P1;durP1;ratioP1;P2;durP2;ratioP2
76204;SDS011;64986;55.672;37.628;2023-09-30T00:00:45;11.40;;;7.40;;
76204;SDS011;64986;55.672;37.628;2023-09-30T00:03:10;13.77;;;8.02;;
76204;SDS011;64986;55.672;37.628;2023-09-30T00:05:36;11.57;;;7.40;;
76204;SDS011;64986;55.672;37.628;2023-09-30T00:08:03;10.90;;;6.90;;
76204;SDS011;64986;55.672;37.628;2023-09-30T00:10:30;10.90;;;7.13;;
76204;SDS011;64986;55.672;37.628;2023-09-30T00:12:56;14.45;;;7.45;;
76204;SDS011;64986;55.672;37.628;2023-09-30T00:15:22;11.77;;;7.47;;
76204;SDS011;64986;55.672;37.628;2023-09-30T00:17:48;8.98;;;7.03;;
76204;SDS011;64986;55.672;37.628;2023-09-30T00:20:13;10.93;;;7.43;;
76204;SDS011;64986;55.672;37.628;2023-09-30T00:22:42;13.57;;;7.72;;
76204;SDS011;64986;55.672;37.628;2023-09-30T00:25:08;12.88;;;7.38;;
76204;SDS011;64986;55.672;37.628;2023-09-30T00:27:35;9.85;;;7.05;;
76204;SDS011;64986;55.672;37.628;2023-09-30T00:30:01;9.77;;;6.95;;
76204;SDS011;64986;55.672;37.628;2023-09-30T00:32:29;9.05;;;6.70;;
76204;SDS011;64986;55.672;37.628;2023-09-30T00:34:54;13.07;;;7.97;;
76204;SDS011;64986;55.672;37.628;2023-09-30T00:37:20;11.88;;;7.15;;
76204;SDS011;64986;55.672;37.628;2023-09-30T00:39:46;12.20;;;7.47;;
76204;SDS011;64986;55.672;37.628;2023-09-30T00:42:11;11.23;;;7.57;;
76204;SDS011;64986;55.672;37.628;2023-09-30T00:44:37;13.27;;;7.18;;
76204;SDS011;64986;55.672;37.628;2023-09-30T00:47:03;11.65;;;7.22;;
76204;SDS011;64986;55.672;37.628;2023-09-30T00:49:29;12.27;;;7.55;;
76204;SDS011;64986;55.672;37.628;2023-09-30T00:51:56;13.90;;;7.45;;
76204;SDS011;64986;55.672;37.628;2023-09-30T00:54:23;12.52;;;7.15;;
76204;SDS011;64986;55.672;37.628;2023-09-30T00:56:50;11.60;;;7.32;;
76204;SDS011;64986;55.672;37.628;2023-09-30T00:59:17;13.07;;;7.35;;
76204;SDS011;64986;55.672;37.628;2023-09-30T01:01:44;12.30;;;7.05;;
76204;SDS011;64986;55.672;37.628;2023-09-30T01:04:11;9.73;;;6.82;;
76204;SDS011;64986;55.672;37.628;2023-09-30T01:06:37;15.05;;;7.40;;
76204;SDS011;64986;55.672;37.628;2023-09-30T01:09:03;12.85;;;8.07;;
76204;SDS011;64986;55.672;37.628;2023-09-30T01:11:29;11.60;;;7.72;;
76204;SDS011;64986;55.672;37.628;2023-09-30T01:13:55;10.85;;;8.32;;
76204;SDS011;64986;55.672;37.628;2023-09-30T01:16:20;13.68;;;7.88;;
76204;SDS011;64986;55.672;37.628;2023-09-30T01:18:46;13.23;;;8.25;;
76204;SDS011;64986;55.672;37.628;2023-09-30T01:21:12;14.52;;;7.03;;
76204;SDS011;64986;55.672;37.628;2023-09-30T01:23:37;15.80;;;7.57;;
76204;SDS011;64986;55.672;37.628;2023-09-30T01:26:07;11.25;;;7.88;;
76204;SDS011;64986;55.672;37.628;2023-09-30T01:28:37;11.73;;;8.30;;
76204;SDS011;64986;55.672;37.628;2023-09-30T01:31:03;13.32;;;8.60;;
76204;SDS011;64986;55.672;37.628;2023-09-30T01:33:30;10.40;;;8.45;;
76204;SDS011;64986;55.672;37.628;2023-09-30T01:35:56;10.55;;;7.75;;
76204;SDS011;64986;55.672;37.628;2023-09-30T01:38:22;16.00;;;8.25;;
76204;SDS011;64986;55.672;37.628;2023-09-30T01:40:48;11.75;;;7.38;;
76204;SDS011;64986;55.672;37.628;2023-09-30T01:43:14;14.85;;;8.48;;
76204;SDS011;64986;55.672;37.628;2023-09-30T01:45:40;13.98;;;8.60;;
76204;SDS011;64986;55.672;37.628;2023-09-30T01:48:06;13.63;;;8.38;;
76204;SDS011;64986;55.672;37.628;2023-09-30T01:50:32;12.75;;;7.82;;
76204;SDS011;64986;55.672;37.628;2023-09-30T01:52:57;9.93;;;7.65;;
76204;SDS011;64986;55.672;37.628;2023-09-30T01:55:23;13.80;;;7.55;;
76204;SDS011;64986;55.672;37.628;2023-09-30T01:57:49;11.85;;;7.78;;
76204;SDS011;64986;55.672;37.628;2023-09-30T02:00:14;10.18;;;7.13;;
76204;SDS011;64986;55.672;37.628;2023-09-30T02:02:39;13.27;;;6.90;;
76204;SDS011;64986;55.672;37.628;2023-09-30T02:05:05;10.32;;;7.45;;
76204;SDS011;64986;55.672;37.628;2023-09-30T02:07:33;10.70;;;8.40;;
76204;SDS011;64986;55.672;37.628;2023-09-30T02:09:59;11.98;;;7.93;;
76204;SDS011;64986;55.672;37.628;2023-09-30T02:12:24;11.23;;;8.20;;
76204;SDS011;64986;55.672;37.628;2023-09-30T02:14:51;12.80;;;7.68;;
76204;SDS011;64986;55.672;37.628;2023-09-30T02:17:16;14.50;;;8.32;;
76204;SDS011;64986;55.672;37.628;2023-09-30T02:19:42;13.52;;;7.63;;
76204;SDS011;64986;55.672;37.628;2023-09-30T02:22:08;13.57;;;7.72;;
76204;SDS011;64986;55.672;37.628;2023-09-30T02:24:34;14.25;;;8.23;;
76204;SDS011;64986;55.672;37.628;2023-09-30T02:26:59;17.48;;;8.52;;
76204;SDS011;64986;55.672;37.628;2023-09-30T02:29:24;10.95;;;8.20;;
76204;SDS011;64986;55.672;37.628;2023-09-30T02:31:50;12.13;;;8.18;;
76204;SDS011;64986;55.672;37.628;2023-09-30T02:34:16;14.27;;;8.52;;
76204;SDS011;64986;55.672;37.628;2023-09-30T02:36:41;12.82;;;7.35;;
76204;SDS011;64986;55.672;37.628;2023-09-30T02:39:07;10.50;;;6.97;;
76204;SDS011;64986;55.672;37.628;2023-09-30T02:41:34;13.27;;;7.95;;
76204;SDS011;64986;55.672;37.628;2023-09-30T02:43:59;16.48;;;9.02;;
76204;SDS011;64986;55.672;37.628;2023-09-30T02:46:25;13.23;;;8.10;;
76204;SDS011;64986;55.672;37.628;2023-09-30T02:48:53;9.98;;;8.02;;
76204;SDS011;64986;55.672;37.628;2023-09-30T02:51:18;18.05;;;8.68;;
76204;SDS011;64986;55.672;37.628;2023-09-30T02:53:43;11.10;;;7.55;;
76204;SDS011;64986;55.672;37.628;2023-09-30T02:56:09;13.10;;;7.53;;
76204;SDS011;64986;55.672;37.628;2023-09-30T02:58:35;9.98;;;7.45;;
76204;SDS011;64986;55.672;37.628;2023-09-30T03:01:01;14.10;;;7.80;;
76204;SDS011;64986;55.672;37.628;2023-09-30T03:03:26;12.25;;;7.60;;
76204;SDS011;64986;55.672;37.628;2023-09-30T03:05:52;12.57;;;8.00;;
76204;SDS011;64986;55.672;37.628;2023-09-30T03:08:17;16.23;;;7.85;;
76204;SDS011;64986;55.672;37.628;2023-09-30T03:10:43;11.60;;;7.53;;
76204;SDS011;64986;55.672;37.628;2023-09-30T03:13:08;11.60;;;8.40;;
76204;SDS011;64986;55.672;37.628;2023-09-30T03:15:34;15.15;;;8.43;;
76204;SDS011;64986;55.672;37.628;2023-09-30T03:18:00;14.60;;;8.38;;
76204;SDS011;64986;55.672;37.628;2023-09-30T03:20:25;11.02;;;6.93;;
76204;SDS011;64986;55.672;37.628;2023-09-30T03:22:51;13.73;;;8.35;;
76204;SDS011;64986;55.672;37.628;2023-09-30T03:25:17;12.73;;;8.70;;
76204;SDS011;64986;55.672;37.628;2023-09-30T03:27:46;13.20;;;7.07;;
76204;SDS011;64986;55.672;37.628;2023-09-30T03:30:12;12.25;;;7.85;;
76204;SDS011;64986;55.672;37.628;2023-09-30T03:32:37;12.20;;;7.85;;
76204;SDS011;64986;55.672;37.628;2023-09-30T03:35:06;17.08;;;7.70;;
76204;SDS011;64986;55.672;37.628;2023-09-30T03:37:32;9.18;;;6.95;;
76204;SDS011;64986;55.672;37.628;2023-09-30T03:39:58;10.32;;;7.75;;
76204;SDS011;64986;55.672;37.628;2023-09-30T03:42:23;11.45;;;7.20;;
76204;SDS011;64986;55.672;37.628;2023-09-30T03:44:49;11.38;;;7.57;;
76204;SDS011;64986;55.672;37.628;2023-09-30T03:47:15;14.90;;;8.18;;
76204;SDS011;64986;55.672;37.628;2023-09-30T03:49:41;12.77;;;8.00;;
76204;SDS011;64986;55.672;37.628;2023-09-30T03:52:07;13.20;;;8.18;;
76204;SDS011;64986;55.672;37.628;2023-09-30T03:54:33;13.68;;;8.32;;
76204;SDS011;64986;55.672;37.628;2023-09-30T03:56:58;10.63;;;7.28;;
76204;SDS011;64986;55.672;37.628;2023-09-30T03:59:25;10.60;;;7.53;;
76204;SDS011;64986;55.672;37.628;2023-09-30T04:01:51;12.48;;;9.10;;
76204;SDS011;64986;55.672;37.628;2023-09-30T04:04:18;11.35;;;7.78;;
76204;SDS011;64986;55.672;37.628;2023-09-30T04:06:44;9.75;;;8.00;;
76204;SDS011;64986;55.672;37.628;2023-09-30T04:09:10;13.25;;;7.90;;
76204;SDS011;64986;55.672;37.628;2023-09-30T04:11:36;11.05;;;7.75;;
76204;SDS011;64986;55.672;37.628;2023-09-30T04:14:01;15.00;;;7.60;;
76204;SDS011;64986;55.672;37.628;2023-09-30T04:16:26;14.60;;;8.07;;
76204;SDS011;64986;55.672;37.628;2023-09-30T04:18:54;12.18;;;8.88;;
76204;SDS011;64986;55.672;37.628;2023-09-30T04:21:20;9.98;;;7.28;;
76204;SDS011;64986;55.672;37.628;2023-09-30T04:23:45;13.05;;;8.02;;
76204;SDS011;64986;55.672;37.628;2023-09-30T04:26:11;15.07;;;8.27;;
76204;SDS011;64986;55.672;37.628;2023-09-30T04:28:36;12.00;;;7.65;;
76204;SDS011;64986;55.672;37.628;2023-09-30T04:31:02;11.88;;;8.30;;
76204;SDS011;64986;55.672;37.628;2023-09-30T04:33:28;15.55;;;9.52;;
76204;SDS011;64986;55.672;37.628;2023-09-30T04:35:53;13.63;;;8.35;;
76204;SDS011;64986;55.672;37.628;2023-09-30T04:38:19;13.23;;;8.63;;
76204;SDS011;64986;55.672;37.628;2023-09-30T04:40:44;11.05;;;7.72;;
76204;SDS011;64986;55.672;37.628;2023-09-30T04:43:10;13.88;;;7.63;;
76204;SDS011;64986;55.672;37.628;2023-09-30T04:45:36;12.40;;;7.75;;
76204;SDS011;64986;55.672;37.628;2023-09-30T04:48:01;10.02;;;6.97;;
76204;SDS011;64986;55.672;37.628;2023-09-30T04:50:27;13.23;;;7.75;;
76204;SDS011;64986;55.672;37.628;2023-09-30T04:52:55;12.35;;;8.98;;
76204;SDS011;64986;55.672;37.628;2023-09-30T04:55:21;11.07;;;9.05;;
76204;SDS011;64986;55.672;37.628;2023-09-30T04:57:47;13.68;;;8.57;;
76204;SDS011;64986;55.672;37.628;2023-09-30T05:00:16;11.05;;;7.47;;
76204;SDS011;64986;55.672;37.628;2023-09-30T05:02:43;14.27;;;8.38;;
76204;SDS011;64986;55.672;37.628;2023-09-30T05:05:13;14.30;;;8.57;;
76204;SDS011;64986;55.672;37.628;2023-09-30T05:07:40;11.32;;;8.55;;
76204;SDS011;64986;55.672;37.628;2023-09-30T05:10:06;10.07;;;8.02;;
76204;SDS011;64986;55.672;37.628;2023-09-30T05:12:36;11.10;;;7.88;;
76204;SDS011;64986;55.672;37.628;2023-09-30T05:15:02;15.80;;;8.63;;
76204;SDS011;64986;55.672;37.628;2023-09-30T05:17:31;8.80;;;6.88;;
76204;SDS011;64986;55.672;37.628;2023-09-30T05:19:57;10.13;;;8.32;;
76204;SDS011;64986;55.672;37.628;2023-09-30T05:22:23;13.60;;;8.15;;
76204;SDS011;64986;55.672;37.628;2023-09-30T05:24:52;12.30;;;7.57;;
76204;SDS011;64986;55.672;37.628;2023-09-30T05:27:21;9.23;;;6.90;;
76204;SDS011;64986;55.672;37.628;2023-09-30T05:29:46;11.32;;;7.38;;
76204;SDS011;64986;55.672;37.628;2023-09-30T05:32:12;14.55;;;7.88;;
76204;SDS011;64986;55.672;37.628;2023-09-30T05:34:39;11.35;;;7.72;;
76204;SDS011;64986;55.672;37.628;2023-09-30T05:37:05;12.90;;;7.88;;
76204;SDS011;64986;55.672;37.628;2023-09-30T05:39:30;13.40;;;9.73;;
76204;SDS011;64986;55.672;37.628;2023-09-30T05:41:57;14.98;;;7.95;;
76204;SDS011;64986;55.672;37.628;2023-09-30T05:44:23;13.43;;;7.80;;
76204;SDS011;64986;55.672;37.628;2023-09-30T05:46:48;10.13;;;7.53;;
76204;SDS011;64986;55.672;37.628;2023-09-30T05:49:14;12.95;;;8.43;;
76204;SDS011;64986;55.672;37.628;2023-09-30T05:51:40;11.10;;;7.28;;
76204;SDS011;64986;55.672;37.628;2023-09-30T05:54:06;8.88;;;7.47;;
76204;SDS011;64986;55.672;37.628;2023-09-30T05:56:35;14.23;;;7.95;;
76204;SDS011;64986;55.672;37.628;2023-09-30T05:59:07;10.52;;;7.75;;
76204;SDS011;64986;55.672;37.628;2023-09-30T06:01:33;9.00;;;7.25;;
76204;SDS011;64986;55.672;37.628;2023-09-30T06:03:59;11.30;;;8.15;;
76204;SDS011;64986;55.672;37.628;2023-09-30T06:06:25;12.13;;;6.72;;
76204;SDS011;64986;55.672;37.628;2023-09-30T06:08:53;10.15;;;7.65;;
76204;SDS011;64986;55.672;37.628;2023-09-30T06:11:19;9.10;;;6.93;;
76204;SDS011;64986;55.672;37.628;2023-09-30T06:13:52;15.07;;;7.68;;
76204;SDS011;64986;55.672;37.628;2023-09-30T06:16:18;10.30;;;6.60;;
76204;SDS011;64986;55.672;37.628;2023-09-30T06:18:44;12.55;;;6.80;;
76204;SDS011;64986;55.672;37.628;2023-09-30T06:21:10;10.18;;;7.57;;
76204;SDS011;64986;55.672;37.628;2023-09-30T06:23:36;12.95;;;7.10;;
76204;SDS011;64986;55.672;37.628;2023-09-30T06:26:02;12.80;;;8.60;;
76204;SDS011;64986;55.672;37.628;2023-09-30T06:28:28;8.30;;;6.65;;
76204;SDS011;64986;55.672;37.628;2023-09-30T06:30:56;14.90;;;7.53;;
76204;SDS011;64986;55.672;37.628;2023-09-30T06:33:22;15.27;;;7.28;;
76204;SDS011;64986;55.672;37.628;2023-09-30T06:35:48;9.55;;;7.32;;
76204;SDS011;64986;55.672;37.628;2023-09-30T06:38:17;14.60;;;8.48;;
76204;SDS011;64986;55.672;37.628;2023-09-30T06:40:46;9.45;;;7.13;;
76204;SDS011;64986;55.672;37.628;2023-09-30T06:43:15;8.82;;;6.95;;
76204;SDS011;64986;55.672;37.628;2023-09-30T06:45:41;9.80;;;6.53;;
76204;SDS011;64986;55.672;37.628;2023-09-30T06:48:08;12.20;;;8.10;;
76204;SDS011;64986;55.672;37.628;2023-09-30T06:50:43;9.52;;;6.57;;
76204;SDS011;64986;55.672;37.628;2023-09-30T06:53:09;9.40;;;6.53;;
76204;SDS011;64986;55.672;37.628;2023-09-30T06:55:36;11.77;;;8.20;;
76204;SDS011;64986;55.672;37.628;2023-09-30T06:58:03;10.70;;;7.25;;
76204;SDS011;64986;55.672;37.628;2023-09-30T07:00:32;11.07;;;7.72;;
76204;SDS011;64986;55.672;37.628;2023-09-30T07:02:58;12.32;;;7.72;;
76204;SDS011;64986;55.672;37.628;2023-09-30T07:05:24;13.73;;;8.07;;
76204;SDS011;64986;55.672;37.628;2023-09-30T07:07:50;12.45;;;7.43;;
76204;SDS011;64986;55.672;37.628;2023-09-30T07:10:16;9.63;;;7.75;;
76204;SDS011;64986;55.672;37.628;2023-09-30T07:12:41;12.90;;;8.05;;
76204;SDS011;64986;55.672;37.628;2023-09-30T07:15:07;13.23;;;8.50;;
76204;SDS011;64986;55.672;37.628;2023-09-30T07:17:33;12.82;;;8.30;;
76204;SDS011;64986;55.672;37.628;2023-09-30T07:19:59;11.98;;;8.55;;
76204;SDS011;64986;55.672;37.628;2023-09-30T07:22:24;10.15;;;7.28;;
76204;SDS011;64986;55.672;37.628;2023-09-30T07:24:50;13.90;;;8.65;;
76204;SDS011;64986;55.672;37.628;2023-09-30T07:27:15;10.75;;;7.63;;
76204;SDS011;64986;55.672;37.628;2023-09-30T07:29:41;13.10;;;8.35;;
76204;SDS011;64986;55.672;37.628;2023-09-30T07:32:06;11.73;;;7.45;;
76204;SDS011;64986;55.672;37.628;2023-09-30T07:34:32;11.48;;;7.50;;
76204;SDS011;64986;55.672;37.628;2023-09-30T07:36:57;12.63;;;8.18;;
76204;SDS011;64986;55.672;37.628;2023-09-30T07:39:23;16.27;;;8.73;;
76204;SDS011;64986;55.672;37.628;2023-09-30T07:41:48;12.40;;;8.52;;
76204;SDS011;64986;55.672;37.628;2023-09-30T07:44:14;11.25;;;7.15;;
76204;SDS011;64986;55.672;37.628;2023-09-30T07:46:39;17.83;;;7.07;;
76204;SDS011;64986;55.672;37.628;2023-09-30T07:49:04;11.90;;;8.23;;
76204;SDS011;64986;55.672;37.628;2023-09-30T07:51:32;12.68;;;7.80;;
76204;SDS011;64986;55.672;37.628;2023-09-30T07:53:57;11.98;;;8.02;;
76204;SDS011;64986;55.672;37.628;2023-09-30T07:56:23;14.30;;;7.50;;
76204;SDS011;64986;55.672;37.628;2023-09-30T07:58:48;15.27;;;7.30;;
76204;SDS011;64986;55.672;37.628;2023-09-30T08:01:14;11.05;;;7.72;;
76204;SDS011;64986;55.672;37.628;2023-09-30T08:03:40;18.20;;;8.32;;
76204;SDS011;64986;55.672;37.628;2023-09-30T08:06:09;11.73;;;7.53;;
76204;SDS011;64986;55.672;37.628;2023-09-30T08:08:35;9.65;;;7.07;;
76204;SDS011;64986;55.672;37.628;2023-09-30T08:11:01;9.73;;;6.78;;
76204;SDS011;64986;55.672;37.628;2023-09-30T08:13:26;9.55;;;6.85;;
76204;SDS011;64986;55.672;37.628;2023-09-30T08:15:54;13.75;;;7.80;;
76204;SDS011;64986;55.672;37.628;2023-09-30T08:18:19;9.05;;;6.30;;
76204;SDS011;64986;55.672;37.628;2023-09-30T08:20:45;11.35;;;6.90;;
76204;SDS011;64986;55.672;37.628;2023-09-30T08:23:10;14.07;;;7.70;;
76204;SDS011;64986;55.672;37.628;2023-09-30T08:25:39;14.18;;;7.47;;
76204;SDS011;64986;55.672;37.628;2023-09-30T08:28:04;16.25;;;7.50;;
76204;SDS011;64986;55.672;37.628;2023-09-30T08:30:32;15.95;;;6.93;;
76204;SDS011;64986;55.672;37.628;2023-09-30T08:32:58;8.90;;;7.35;;
76204;SDS011;64986;55.672;37.628;2023-09-30T08:35:24;10.85;;;6.40;;
76204;SDS011;64986;55.672;37.628;2023-09-30T08:37:50;11.38;;;6.40;;
76204;SDS011;64986;55.672;37.628;2023-09-30T08:40:19;10.00;;;7.38;;
76204;SDS011;64986;55.672;37.628;2023-09-30T08:42:46;14.30;;;7.20;;
76204;SDS011;64986;55.672;37.628;2023-09-30T08:45:17;14.70;;;7.03;;
76204;SDS011;64986;55.672;37.628;2023-09-30T08:47:44;8.10;;;6.03;;
76204;SDS011;64986;55.672;37.628;2023-09-30T08:50:11;11.75;;;6.13;;
76204;SDS011;64986;55.672;37.628;2023-09-30T08:52:39;9.80;;;6.18;;
76204;SDS011;64986;55.672;37.628;2023-09-30T08:55:06;10.02;;;5.43;;
76204;SDS011;64986;55.672;37.628;2023-09-30T08:57:33;8.10;;;4.90;;
76204;SDS011;64986;55.672;37.628;2023-09-30T09:00:05;10.38;;;6.35;;
76204;SDS011;64986;55.672;37.628;2023-09-30T09:02:35;13.48;;;5.97;;
76204;SDS011;64986;55.672;37.628;2023-09-30T09:05:01;10.60;;;6.00;;
76204;SDS011;64986;55.672;37.628;2023-09-30T09:07:27;10.02;;;7.07;;
76204;SDS011;64986;55.672;37.628;2023-09-30T09:10:11;6.93;;;5.30;;
76204;SDS011;64986;55.672;37.628;2023-09-30T09:12:40;11.77;;;5.82;;
76204;SDS011;64986;55.672;37.628;2023-09-30T09:15:08;10.35;;;6.45;;
76204;SDS011;64986;55.672;37.628;2023-09-30T09:17:46;10.48;;;6.45;;
76204;SDS011;64986;55.672;37.628;2023-09-30T09:20:16;8.40;;;6.35;;
76204;SDS011;64986;55.672;37.628;2023-09-30T09:22:45;5.45;;;4.25;;
76204;SDS011;64986;55.672;37.628;2023-09-30T09:25:12;9.60;;;6.15;;
76204;SDS011;64986;55.672;37.628;2023-09-30T09:27:38;7.30;;;5.97;;
76204;SDS011;64986;55.672;37.628;2023-09-30T09:33:04;11.35;;;5.45;;
76204;SDS011;64986;55.672;37.628;2023-09-30T09:35:30;7.10;;;5.18;;
76204;SDS011;64986;55.672;37.628;2023-09-30T09:37:58;10.13;;;6.05;;
76204;SDS011;64986;55.672;37.628;2023-09-30T09:40:26;7.03;;;5.03;;
76204;SDS011;64986;55.672;37.628;2023-09-30T09:42:53;10.00;;;5.70;;
76204;SDS011;64986;55.672;37.628;2023-09-30T09:45:21;8.77;;;6.45;;
76204;SDS011;64986;55.672;37.628;2023-09-30T09:47:48;9.07;;;5.35;;
76204;SDS011;64986;55.672;37.628;2023-09-30T09:50:14;13.73;;;6.05;;
76204;SDS011;64986;55.672;37.628;2023-09-30T09:52:40;9.95;;;6.57;;
76204;SDS011;64986;55.672;37.628;2023-09-30T09:55:08;8.73;;;5.97;;
76204;SDS011;64986;55.672;37.628;2023-09-30T09:57:35;12.38;;;8.00;;
76204;SDS011;64986;55.672;37.628;2023-09-30T10:00:03;10.63;;;6.07;;
76204;SDS011;64986;55.672;37.628;2023-09-30T10:02:30;9.50;;;6.35;;
76204;SDS011;64986;55.672;37.628;2023-09-30T10:04:57;9.07;;;5.28;;
76204;SDS011;64986;55.672;37.628;2023-09-30T10:07:28;6.97;;;4.43;;
76204;SDS011;64986;55.672;37.628;2023-09-30T10:09:58;9.27;;;5.93;;
76204;SDS011;64986;55.672;37.628;2023-09-30T10:12:26;9.73;;;6.53;;
76204;SDS011;64986;55.672;37.628;2023-09-30T10:14:53;7.07;;;5.95;;
76204;SDS011;64986;55.672;37.628;2023-09-30T10:17:18;11.75;;;6.00;;
76204;SDS011;64986;55.672;37.628;2023-09-30T10:20:03;10.52;;;6.07;;
76204;SDS011;64986;55.672;37.628;2023-09-30T10:22:31;13.93;;;6.40;;
76204;SDS011;64986;55.672;37.628;2023-09-30T10:24:58;12.18;;;6.55;;
76204;SDS011;64986;55.672;37.628;2023-09-30T10:27:30;8.90;;;6.10;;
76204;SDS011;64986;55.672;37.628;2023-09-30T10:30:05;11.30;;;7.15;;
76204;SDS011;64986;55.672;37.628;2023-09-30T10:40:47;10.60;;;6.07;;
76204;SDS011;64986;55.672;37.628;2023-09-30T10:43:32;8.32;;;6.15;;
76204;SDS011;64986;55.672;37.628;2023-09-30T10:45:59;8.82;;;6.50;;
76204;SDS011;64986;55.672;37.628;2023-09-30T10:50:57;9.52;;;6.25;;
76204;SDS011;64986;55.672;37.628;2023-09-30T10:53:25;10.85;;;6.53;;
76204;SDS011;64986;55.672;37.628;2023-09-30T10:55:53;8.10;;;4.88;;
76204;SDS011;64986;55.672;37.628;2023-09-30T10:58:42;10.32;;;6.25;;
76204;SDS011;64986;55.672;37.628;2023-09-30T11:01:16;8.20;;;6.18;;
76204;SDS011;64986;55.672;37.628;2023-09-30T11:03:46;8.68;;;6.97;;
76204;SDS011;64986;55.672;37.628;2023-09-30T11:06:13;10.20;;;6.32;;
76204;SDS011;64986;55.672;37.628;2023-09-30T11:08:44;8.05;;;6.32;;
76204;SDS011;64986;55.672;37.628;2023-09-30T11:11:12;6.53;;;4.60;;
76204;SDS011;64986;55.672;37.628;2023-09-30T11:13:39;9.40;;;6.43;;
76204;SDS011;64986;55.672;37.628;2023-09-30T11:16:05;7.75;;;5.50;;
76204;SDS011;64986;55.672;37.628;2023-09-30T11:18:31;10.70;;;5.40;;
76204;SDS011;64986;55.672;37.628;2023-09-30T11:21:07;10.77;;;6.85;;
76204;SDS011;64986;55.672;37.628;2023-09-30T11:23:34;8.27;;;5.85;;
76204;SDS011;64986;55.672;37.628;2023-09-30T11:26:01;12.40;;;6.07;;
76204;SDS011;64986;55.672;37.628;2023-09-30T11:28:35;8.68;;;6.25;;
76204;SDS011;64986;55.672;37.628;2023-09-30T11:31:02;10.32;;;6.70;;
76204;SDS011;64986;55.672;37.628;2023-09-30T11:33:28;8.38;;;5.80;;
76204;SDS011;64986;55.672;37.628;2023-09-30T11:36:02;10.52;;;6.60;;
76204;SDS011;64986;55.672;37.628;2023-09-30T11:38:30;9.20;;;6.18;;
76204;SDS011;64986;55.672;37.628;2023-09-30T11:43:33;12.30;;;6.57;;
76204;SDS011;64986;55.672;37.628;2023-09-30T11:48:38;9.82;;;5.47;;
76204;SDS011;64986;55.672;37.628;2023-09-30T11:51:04;10.85;;;6.25;;
76204;SDS011;64986;55.672;37.628;2023-09-30T11:53:31;10.68;;;5.65;;
76204;SDS011;64986;55.672;37.628;2023-09-30T11:56:00;10.52;;;6.82;;
76204;SDS011;64986;55.672;37.628;2023-09-30T11:58:29;7.88;;;5.80;;
76204;SDS011;64986;55.672;37.628;2023-09-30T12:01:00;8.20;;;5.65;;
76204;SDS011;64986;55.672;37.628;2023-09-30T12:03:26;7.53;;;5.25;;
76204;SDS011;64986;55.672;37.628;2023-09-30T12:05:54;7.68;;;5.30;;
76204;SDS011;64986;55.672;37.628;2023-09-30T12:08:22;6.97;;;5.57;;
76204;SDS011;64986;55.672;37.628;2023-09-30T12:10:48;7.70;;;5.40;;
76204;SDS011;64986;55.672;37.628;2023-09-30T12:13:14;10.10;;;5.68;;
76204;SDS011;64986;55.672;37.628;2023-09-30T12:15:40;8.05;;;5.95;;
76204;SDS011;64986;55.672;37.628;2023-09-30T12:18:09;9.38;;;5.63;;
76204;SDS011;64986;55.672;37.628;2023-09-30T12:20:35;8.15;;;5.82;;
76204;SDS011;64986;55.672;37.628;2023-09-30T12:23:01;8.18;;;5.78;;
76204;SDS011;64986;55.672;37.628;2023-09-30T12:25:26;7.63;;;5.55;;
76204;SDS011;64986;55.672;37.628;2023-09-30T12:27:53;7.47;;;6.05;;
76204;SDS011;64986;55.672;37.628;2023-09-30T12:30:20;7.97;;;5.53;;
76204;SDS011;64986;55.672;37.628;2023-09-30T12:32:46;9.20;;;5.32;;
76204;SDS011;64986;55.672;37.628;2023-09-30T12:35:12;9.13;;;6.03;;
76204;SDS011;64986;55.672;37.628;2023-09-30T12:37:38;8.50;;;4.80;;
76204;SDS011;64986;55.672;37.628;2023-09-30T12:40:06;8.77;;;5.90;;
76204;SDS011;64986;55.672;37.628;2023-09-30T12:42:33;9.55;;;4.80;;
76204;SDS011;64986;55.672;37.628;2023-09-30T12:45:00;7.53;;;5.10;;
76204;SDS011;64986;55.672;37.628;2023-09-30T12:47:26;10.23;;;5.30;;
76204;SDS011;64986;55.672;37.628;2023-09-30T12:49:51;9.40;;;5.72;;
76204;SDS011;64986;55.672;37.628;2023-09-30T12:52:19;11.55;;;5.78;;
76204;SDS011;64986;55.672;37.628;2023-09-30T12:54:45;7.43;;;5.53;;
76204;SDS011;64986;55.672;37.628;2023-09-30T12:57:11;7.30;;;5.53;;
76204;SDS011;64986;55.672;37.628;2023-09-30T12:59:38;6.22;;;4.85;;
76204;SDS011;64986;55.672;37.628;2023-09-30T13:02:04;7.93;;;5.13;;
76204;SDS011;64986;55.672;37.628;2023-09-30T13:04:31;11.98;;;6.15;;
76204;SDS011;64986;55.672;37.628;2023-09-30T13:06:56;10.40;;;6.05;;
76204;SDS011;64986;55.672;37.628;2023-09-30T13:09:22;9.43;;;5.60;;
76204;SDS011;64986;55.672;37.628;2023-09-30T13:11:47;8.70;;;6.07;;
76204;SDS011;64986;55.672;37.628;2023-09-30T13:14:14;7.22;;;5.20;;
76204;SDS011;64986;55.672;37.628;2023-09-30T13:16:39;7.22;;;6.00;;
76204;SDS011;64986;55.672;37.628;2023-09-30T13:19:05;11.57;;;5.32;;
76204;SDS011;64986;55.672;37.628;2023-09-30T13:21:30;10.23;;;5.93;;
76204;SDS011;64986;55.672;37.628;2023-09-30T13:23:56;8.95;;;6.22;;
76204;SDS011;64986;55.672;37.628;2023-09-30T13:26:22;7.15;;;5.57;;
76204;SDS011;64986;55.672;37.628;2023-09-30T13:28:47;9.10;;;5.32;;
76204;SDS011;64986;55.672;37.628;2023-09-30T13:31:13;8.20;;;6.28;;
76204;SDS011;64986;55.672;37.628;2023-09-30T13:33:38;7.85;;;5.80;;
76204;SDS011;64986;55.672;37.628;2023-09-30T13:36:04;10.65;;;6.05;;
76204;SDS011;64986;55.672;37.628;2023-09-30T13:38:30;9.32;;;6.32;;
76204;SDS011;64986;55.672;37.628;2023-09-30T13:40:55;8.52;;;4.97;;
76204;SDS011;64986;55.672;37.628;2023-09-30T13:43:21;8.32;;;6.47;;
76204;SDS011;64986;55.672;37.628;2023-09-30T13:45:47;8.88;;;5.95;;
76204;SDS011;64986;55.672;37.628;2023-09-30T13:48:13;12.38;;;6.43;;
76204;SDS011;64986;55.672;37.628;2023-09-30T13:50:39;8.98;;;5.85;;
76204;SDS011;64986;55.672;37.628;2023-09-30T13:53:04;10.10;;;5.90;;
76204;SDS011;64986;55.672;37.628;2023-09-30T13:55:30;10.68;;;6.18;;
76204;SDS011;64986;55.672;37.628;2023-09-30T13:57:56;6.65;;;5.10;;
76204;SDS011;64986;55.672;37.628;2023-09-30T14:00:22;9.18;;;5.63;;
76204;SDS011;64986;55.672;37.628;2023-09-30T14:02:47;7.65;;;5.72;;
76204;SDS011;64986;55.672;37.628;2023-09-30T14:05:13;9.32;;;5.35;;
76204;SDS011;64986;55.672;37.628;2023-09-30T14:07:39;8.93;;;6.07;;
76204;SDS011;64986;55.672;37.628;2023-09-30T14:10:05;9.90;;;5.90;;
76204;SDS011;64986;55.672;37.628;2023-09-30T14:12:32;12.90;;;6.05;;
76204;SDS011;64986;55.672;37.628;2023-09-30T14:14:58;7.45;;;6.28;;
76204;SDS011;64986;55.672;37.628;2023-09-30T14:17:23;9.38;;;6.30;;
76204;SDS011;64986;55.672;37.628;2023-09-30T14:19:50;9.52;;;7.30;;
76204;SDS011;64986;55.672;37.628;2023-09-30T14:22:16;8.48;;;5.63;;
76204;SDS011;64986;55.672;37.628;2023-09-30T14:24:42;11.10;;;6.72;;
76204;SDS011;64986;55.672;37.628;2023-09-30T14:27:08;8.85;;;7.03;;
76204;SDS011;64986;55.672;37.628;2023-09-30T14:29:33;10.43;;;6.80;;
76204;SDS011;64986;55.672;37.628;2023-09-30T14:31:59;8.73;;;6.00;;
76204;SDS011;64986;55.672;37.628;2023-09-30T14:34:25;10.20;;;6.28;;
76204;SDS011;64986;55.672;37.628;2023-09-30T14:36:51;9.43;;;6.05;;
76204;SDS011;64986;55.672;37.628;2023-09-30T14:39:17;11.98;;;6.50;;
76204;SDS011;64986;55.672;37.628;2023-09-30T14:41:43;11.43;;;7.22;;